sensor_id;sensor_type;location;lat;lon;timestamp;pressure;altitude;pressure_sealevel;temperature;humidity
43683;BME280;29285;52.128;21.060;2023-11-21T00:04:00;99622.31;;;2.29;100.00
43683;BME280;29285;52.128;21.060;2023-11-21T00:09:02;99623.88;;;2.35;100.00
43683;BME280;29285;52.128;21.060;2023-11-21T00:14:03;99626.81;;;2.38;100.00
43683;BME280;29285;52.128;21.060;2023-11-21T00:19:04;99634.02;;;2.40;100.00
43683;BME280;29285;52.128;21.060;2023-11-21T00:24:05;99634.67;;;2.37;100.00
43683;BME280;29285;52.128;21.060;2023-11-21T00:29:06;99638.77;;;2.33;100.00
43683;BME280;29285;52.128;21.060;2023-11-21T00:34:12;99642.02;;;2.32;100.00
43683;BME280;29285;52.128;21.060;2023-11-21T00:39:13;99650.75;;;2.32;100.00
43683;BME280;29285;52.128;21.060;2023-11-21T00:44:17;99660.80;;;2.25;100.00
43683;BME280;29285;52.128;21.060;2023-11-21T00:49:18;99666.29;;;2.27;100.00
43683;BME280;29285;52.128;21.060;2023-11-21T00:54:19;99669.90;;;2.29;100.00
43683;BME280;29285;52.128;21.060;2023-11-21T00:59:21;99671.06;;;2.25;100.00
43683;BME280;29285;52.128;21.060;2023-11-21T01:04:23;99669.91;;;2.31;100.00
43683;BME280;29285;52.128;21.060;2023-11-21T01:09:24;99670.39;;;2.26;100.00
43683;BME280;29285;52.128;21.060;2023-11-21T01:14:26;99672.60;;;2.23;100.00
43683;BME280;29285;52.128;21.060;2023-11-21T01:19:27;99677.56;;;2.23;100.00
43683;BME280;29285;52.128;21.060;2023-11-21T01:24:29;99682.14;;;2.17;100.00
43683;BME280;29285;52.128;21.060;2023-11-21T01:29:30;99687.38;;;2.09;100.00
43683;BME280;29285;52.128;21.060;2023-11-21T01:34:31;99683.63;;;2.10;100.00
43683;BME280;29285;52.128;21.060;2023-11-21T01:39:32;99687.73;;;2.11;100.00
43683;BME280;29285;52.128;21.060;2023-11-21T01:44:33;99691.00;;;2.12;100.00
43683;BME280;29285;52.128;21.060;2023-11-21T01:49:35;99687.04;;;2.10;100.00
43683;BME280;29285;52.128;21.060;2023-11-21T01:54:37;99686.90;;;2.14;100.00
43683;BME280;29285;52.128;21.060;2023-11-21T01:59:38;99689.17;;;2.19;100.00
43683;BME280;29285;52.128;21.060;2023-11-21T02:04:42;99686.65;;;2.25;100.00
43683;BME280;29285;52.128;21.060;2023-11-21T02:09:43;99689.32;;;2.16;100.00
43683;BME280;29285;52.128;21.060;2023-11-21T02:14:46;99691.98;;;2.07;100.00
43683;BME280;29285;52.128;21.060;2023-11-21T02:19:47;99697.52;;;1.96;100.00
43683;BME280;29285;52.128;21.060;2023-11-21T02:24:51;99702.79;;;1.92;100.00
43683;BME280;29285;52.128;21.060;2023-11-21T02:29:53;99703.10;;;1.87;100.00
43683;BME280;29285;52.128;21.060;2023-11-21T02:34:55;99705.30;;;1.83;100.00
43683;BME280;29285;52.128;21.060;2023-11-21T02:39:56;99708.27;;;1.91;100.00
43683;BME280;29285;52.128;21.060;2023-11-21T02:44:57;99711.00;;;1.91;100.00
43683;BME280;29285;52.128;21.060;2023-11-21T02:49:58;99710.88;;;1.96;100.00
43683;BME280;29285;52.128;21.060;2023-11-21T02:54:59;99716.87;;;1.96;100.00
43683;BME280;29285;52.128;21.060;2023-11-21T03:00:00;99715.11;;;1.91;100.00
43683;BME280;29285;52.128;21.060;2023-11-21T03:05:01;99716.13;;;1.91;100.00
43683;BME280;29285;52.128;21.060;2023-11-21T03:10:02;99723.28;;;1.86;100.00
43683;BME280;29285;52.128;21.060;2023-11-21T03:15:05;99717.80;;;1.86;100.00
43683;BME280;29285;52.128;21.060;2023-11-21T03:20:07;99719.17;;;1.86;100.00
43683;BME280;29285;52.128;21.060;2023-11-21T03:25:11;99725.96;;;1.82;100.00
43683;BME280;29285;52.128;21.060;2023-11-21T03:30:12;99733.07;;;1.73;100.00
43683;BME280;29285;52.128;21.060;2023-11-21T03:35:13;99741.04;;;1.66;100.00
43683;BME280;29285;52.128;21.060;2023-11-21T03:40:14;99745.46;;;1.64;100.00
43683;BME280;29285;52.128;21.060;2023-11-21T03:45:15;99749.45;;;1.68;100.00
43683;BME280;29285;52.128;21.060;2023-11-21T03:50:16;99755.07;;;1.68;100.00
43683;BME280;29285;52.128;21.060;2023-11-21T03:55:17;99756.16;;;1.73;100.00
43683;BME280;29285;52.128;21.060;2023-11-21T04:00:18;99753.88;;;1.67;100.00
43683;BME280;29285;52.128;21.060;2023-11-21T04:05:21;99754.50;;;1.62;100.00
43683;BME280;29285;52.128;21.060;2023-11-21T04:10:23;99761.63;;;1.57;100.00
43683;BME280;29285;52.128;21.060;2023-11-21T04:15:23;99762.52;;;1.46;100.00
43683;BME280;29285;52.128;21.060;2023-11-21T04:20:25;99768.32;;;1.44;100.00
43683;BME280;29285;52.128;21.060;2023-11-21T04:25:26;99777.18;;;1.42;100.00
43683;BME280;29285;52.128;21.060;2023-11-21T04:30:27;99779.17;;;1.37;100.00
43683;BME280;29285;52.128;21.060;2023-11-21T04:35:28;99781.61;;;1.41;100.00
43683;BME280;29285;52.128;21.060;2023-11-21T04:40:29;99786.46;;;1.32;100.00
43683;BME280;29285;52.128;21.060;2023-11-21T04:45:30;99787.64;;;1.31;100.00
43683;BME280;29285;52.128;21.060;2023-11-21T04:50:31;99785.99;;;1.36;100.00
43683;BME280;29285;52.128;21.060;2023-11-21T04:55:32;99793.62;;;1.31;100.00
43683;BME280;29285;52.128;21.060;2023-11-21T05:00:33;99799.48;;;1.22;100.00
43683;BME280;29285;52.128;21.060;2023-11-21T05:05:34;99799.75;;;1.17;100.00
43683;BME280;29285;52.128;21.060;2023-11-21T05:10:35;99808.38;;;1.23;100.00
43683;BME280;29285;52.128;21.060;2023-11-21T05:15:38;99815.17;;;1.20;100.00
43683;BME280;29285;52.128;21.060;2023-11-21T05:20:40;99821.04;;;1.24;100.00
43683;BME280;29285;52.128;21.060;2023-11-21T05:25:41;99819.48;;;1.22;100.00
43683;BME280;29285;52.128;21.060;2023-11-21T05:30:42;99826.67;;;1.23;100.00
43683;BME280;29285;52.128;21.060;2023-11-21T05:35:43;99834.80;;;1.30;100.00
43683;BME280;29285;52.128;21.060;2023-11-21T05:40:44;99842.41;;;1.36;100.00
43683;BME280;29285;52.128;21.060;2023-11-21T05:45:45;99851.59;;;1.46;100.00
43683;BME280;29285;52.128;21.060;2023-11-21T05:50:46;99853.49;;;1.48;100.00
43683;BME280;29285;52.128;21.060;2023-11-21T05:55:47;99856.98;;;1.39;100.00
43683;BME280;29285;52.128;21.060;2023-11-21T06:00:48;99855.02;;;1.33;100.00
43683;BME280;29285;52.128;21.060;2023-11-21T06:05:49;99859.73;;;1.27;100.00
43683;BME280;29285;52.128;21.060;2023-11-21T06:10:50;99866.70;;;1.25;100.00
43683;BME280;29285;52.128;21.060;2023-11-21T06:15:51;99872.09;;;1.32;100.00
43683;BME280;29285;52.128;21.060;2023-11-21T06:20:52;99877.43;;;1.35;100.00
43683;BME280;29285;52.128;21.060;2023-11-21T06:25:53;99880.42;;;1.29;100.00
43683;BME280;29285;52.128;21.060;2023-11-21T06:30:54;99890.31;;;1.27;100.00
43683;BME280;29285;52.128;21.060;2023-11-21T06:35:55;99897.95;;;1.24;100.00
43683;BME280;29285;52.128;21.060;2023-11-21T06:40:56;99903.70;;;1.20;100.00
43683;BME280;29285;52.128;21.060;2023-11-21T06:45:59;99909.98;;;1.17;100.00
43683;BME280;29285;52.128;21.060;2023-11-21T06:50:59;99918.98;;;1.24;100.00
43683;BME280;29285;52.128;21.060;2023-11-21T06:56:00;99922.57;;;1.24;100.00
43683;BME280;29285;52.128;21.060;2023-11-21T07:01:01;99921.45;;;1.19;100.00
43683;BME280;29285;52.128;21.060;2023-11-21T07:06:03;99927.18;;;1.14;100.00
43683;BME280;29285;52.128;21.060;2023-11-21T07:11:04;99935.25;;;1.16;100.00
43683;BME280;29285;52.128;21.060;2023-11-21T07:16:06;99937.59;;;1.23;100.00
43683;BME280;29285;52.128;21.060;2023-11-21T07:21:07;99937.22;;;1.31;100.00
43683;BME280;29285;52.128;21.060;2023-11-21T07:26:09;99940.05;;;1.38;100.00
43683;BME280;29285;52.128;21.060;2023-11-21T07:31:11;99946.34;;;1.48;100.00
43683;BME280;29285;52.128;21.060;2023-11-21T07:36:14;99953.15;;;1.46;100.00
43683;BME280;29285;52.128;21.060;2023-11-21T07:41:17;99960.05;;;1.39;100.00
43683;BME280;29285;52.128;21.060;2023-11-21T07:46:18;99963.30;;;1.39;100.00
43683;BME280;29285;52.128;21.060;2023-11-21T07:51:20;99958.88;;;1.40;100.00
43683;BME280;29285;52.128;21.060;2023-11-21T07:56:22;99959.69;;;1.37;100.00
43683;BME280;29285;52.128;21.060;2023-11-21T08:01:23;99952.44;;;1.32;100.00
43683;BME280;29285;52.128;21.060;2023-11-21T08:06:24;99953.06;;;1.28;100.00
43683;BME280;29285;52.128;21.060;2023-11-21T08:11:27;99958.19;;;1.29;100.00
43683;BME280;29285;52.128;21.060;2023-11-21T08:16:30;99965.79;;;1.33;100.00
43683;BME280;29285;52.128;21.060;2023-11-21T08:21:31;99974.38;;;1.36;100.00
43683;BME280;29285;52.128;21.060;2023-11-21T08:26:32;99982.58;;;1.36;100.00
43683;BME280;29285;52.128;21.060;2023-11-21T08:31:33;99989.42;;;1.36;100.00
43683;BME280;29285;52.128;21.060;2023-11-21T08:36:34;99994.63;;;1.40;100.00
43683;BME280;29285;52.128;21.060;2023-11-21T08:41:36;99995.27;;;1.49;100.00
43683;BME280;29285;52.128;21.060;2023-11-21T08:46:37;99999.63;;;1.55;100.00
43683;BME280;29285;52.128;21.060;2023-11-21T08:51:40;100003.37;;;1.53;100.00
43683;BME280;29285;52.128;21.060;2023-11-21T08:56:41;100007.42;;;1.51;100.00
43683;BME280;29285;52.128;21.060;2023-11-21T09:01:44;100010.34;;;1.50;100.00
43683;BME280;29285;52.128;21.060;2023-11-21T09:06:45;100011.21;;;1.53;100.00
43683;BME280;29285;52.128;21.060;2023-11-21T09:11:46;100009.87;;;1.54;100.00
43683;BME280;29285;52.128;21.060;2023-11-21T09:16:50;100021.79;;;1.50;100.00
43683;BME280;29285;52.128;21.060;2023-11-21T09:21:51;100025.40;;;1.52;100.00
43683;BME280;29285;52.128;21.060;2023-11-21T09:26:52;100029.65;;;1.61;100.00
43683;BME280;29285;52.128;21.060;2023-11-21T09:31:53;100037.05;;;1.64;100.00
43683;BME280;29285;52.128;21.060;2023-11-21T09:36:55;100036.91;;;1.65;100.00
43683;BME280;29285;52.128;21.060;2023-11-21T09:42:04;100037.77;;;1.67;100.00
43683;BME280;29285;52.128;21.060;2023-11-21T09:47:10;100039.75;;;1.73;100.00
43683;BME280;29285;52.128;21.060;2023-11-21T09:52:27;100036.94;;;1.78;100.00
43683;BME280;29285;52.128;21.060;2023-11-21T09:57:28;100034.70;;;1.78;100.00
43683;BME280;29285;52.128;21.060;2023-11-21T10:02:32;100034.10;;;1.84;100.00
43683;BME280;29285;52.128;21.060;2023-11-21T10:07:37;100041.65;;;1.86;100.00
43683;BME280;29285;52.128;21.060;2023-11-21T10:12:41;100047.00;;;1.88;100.00
43683;BME280;29285;52.128;21.060;2023-11-21T10:17:44;100048.65;;;1.96;100.00
43683;BME280;29285;52.128;21.060;2023-11-21T10:22:46;100049.64;;;2.05;100.00
43683;BME280;29285;52.128;21.060;2023-11-21T10:27:49;100050.31;;;2.17;100.00
43683;BME280;29285;52.128;21.060;2023-11-21T10:32:58;100050.63;;;2.15;100.00
43683;BME280;29285;52.128;21.060;2023-11-21T10:38:00;100053.01;;;2.14;100.00
43683;BME280;29285;52.128;21.060;2023-11-21T10:43:10;100054.95;;;2.18;100.00
43683;BME280;29285;52.128;21.060;2023-11-21T10:48:14;100057.10;;;2.25;100.00
43683;BME280;29285;52.128;21.060;2023-11-21T10:53:18;100054.95;;;2.31;100.00
43683;BME280;29285;52.128;21.060;2023-11-21T10:58:19;100061.42;;;2.29;100.00
43683;BME280;29285;52.128;21.060;2023-11-21T11:03:20;100060.46;;;2.21;100.00
43683;BME280;29285;52.128;21.060;2023-11-21T11:08:24;100064.02;;;2.19;100.00
43683;BME280;29285;52.128;21.060;2023-11-21T11:13:27;100066.02;;;2.14;100.00
43683;BME280;29285;52.128;21.060;2023-11-21T11:18:29;100067.59;;;2.16;100.00
43683;BME280;29285;52.128;21.060;2023-11-21T11:23:58;100070.14;;;2.15;100.00
43683;BME280;29285;52.128;21.060;2023-11-21T11:29:18;100071.66;;;2.02;100.00
43683;BME280;29285;52.128;21.060;2023-11-21T11:34:43;100072.21;;;2.04;100.00
43683;BME280;29285;52.128;21.060;2023-11-21T11:39:46;100073.84;;;2.10;100.00
43683;BME280;29285;52.128;21.060;2023-11-21T11:44:48;100075.92;;;2.01;100.00
43683;BME280;29285;52.128;21.060;2023-11-21T11:49:56;100084.77;;;1.98;100.00
43683;BME280;29285;52.128;21.060;2023-11-21T11:54:59;100082.48;;;2.03;100.00
43683;BME280;29285;52.128;21.060;2023-11-21T12:05:14;100093.28;;;1.83;100.00
43683;BME280;29285;52.128;21.060;2023-11-21T12:10:16;100090.37;;;1.82;100.00
43683;BME280;29285;52.128;21.060;2023-11-21T12:15:19;100096.34;;;1.71;100.00
43683;BME280;29285;52.128;21.060;2023-11-21T12:20:22;100103.77;;;1.65;100.00
43683;BME280;29285;52.128;21.060;2023-11-21T12:25:27;100101.47;;;1.61;100.00
43683;BME280;29285;52.128;21.060;2023-11-21T12:30:36;100108.57;;;1.56;100.00
43683;BME280;29285;52.128;21.060;2023-11-21T12:35:38;100111.23;;;1.41;100.00
43683;BME280;29285;52.128;21.060;2023-11-21T12:40:39;100120.02;;;1.26;100.00
43683;BME280;29285;52.128;21.060;2023-11-21T12:45:40;100122.56;;;1.25;100.00
43683;BME280;29285;52.128;21.060;2023-11-21T12:50:42;100130.88;;;1.31;100.00
43683;BME280;29285;52.128;21.060;2023-11-21T12:55:43;100136.20;;;1.32;100.00
43683;BME280;29285;52.128;21.060;2023-11-21T13:00:50;100135.04;;;1.34;100.00
43683;BME280;29285;52.128;21.060;2023-11-21T13:05:55;100133.49;;;1.34;100.00
43683;BME280;29285;52.128;21.060;2023-11-21T13:10:57;100141.23;;;1.37;100.00
43683;BME280;29285;52.128;21.060;2023-11-21T13:16:00;100139.13;;;1.43;100.00
43683;BME280;29285;52.128;21.060;2023-11-21T13:21:03;100150.33;;;1.38;100.00
43683;BME280;29285;52.128;21.060;2023-11-21T13:26:10;100154.71;;;1.36;100.00
43683;BME280;29285;52.128;21.060;2023-11-21T13:31:13;100152.71;;;1.38;100.00
43683;BME280;29285;52.128;21.060;2023-11-21T13:36:33;100159.40;;;1.39;100.00
43683;BME280;29285;52.128;21.060;2023-11-21T13:41:35;100170.63;;;1.36;100.00
43683;BME280;29285;52.128;21.060;2023-11-21T13:46:38;100181.96;;;1.38;100.00
43683;BME280;29285;52.128;21.060;2023-11-21T13:51:40;100192.12;;;1.42;100.00
43683;BME280;29285;52.128;21.060;2023-11-21T13:56:46;100194.63;;;1.39;100.00
43683;BME280;29285;52.128;21.060;2023-11-21T14:01:47;100212.39;;;1.39;100.00
43683;BME280;29285;52.128;21.060;2023-11-21T14:06:56;100220.85;;;1.34;100.00
43683;BME280;29285;52.128;21.060;2023-11-21T14:11:57;100231.48;;;1.36;100.00
43683;BME280;29285;52.128;21.060;2023-11-21T14:16:58;100244.64;;;1.35;100.00
43683;BME280;29285;52.128;21.060;2023-11-21T14:22:08;100255.73;;;1.34;100.00
43683;BME280;29285;52.128;21.060;2023-11-21T14:27:10;100262.95;;;1.28;100.00
43683;BME280;29285;52.128;21.060;2023-11-21T14:32:11;100276.98;;;1.29;100.00
43683;BME280;29285;52.128;21.060;2023-11-21T14:37:13;100279.23;;;1.30;100.00
43683;BME280;29285;52.128;21.060;2023-11-21T14:42:14;100283.20;;;1.31;100.00
43683;BME280;29285;52.128;21.060;2023-11-21T14:47:16;100297.77;;;1.26;100.00
43683;BME280;29285;52.128;21.060;2023-11-21T14:52:17;100306.13;;;1.25;100.00
43683;BME280;29285;52.128;21.060;2023-11-21T14:57:33;100308.52;;;1.16;100.00
43683;BME280;29285;52.128;21.060;2023-11-21T15:02:34;100306.34;;;1.11;100.00
43683;BME280;29285;52.128;21.060;2023-11-21T15:07:50;100314.45;;;1.14;100.00
43683;BME280;29285;52.128;21.060;2023-11-21T15:12:56;100317.95;;;1.10;100.00
43683;BME280;29285;52.128;21.060;2023-11-21T15:17:58;100313.25;;;1.07;100.00
43683;BME280;29285;52.128;21.060;2023-11-21T15:22:59;100317.98;;;1.04;100.00
43683;BME280;29285;52.128;21.060;2023-11-21T15:28:02;100315.83;;;0.99;100.00
43683;BME280;29285;52.128;21.060;2023-11-21T15:33:04;100327.11;;;1.00;100.00
43683;BME280;29285;52.128;21.060;2023-11-21T15:38:05;100330.92;;;1.02;100.00
43683;BME280;29285;52.128;21.060;2023-11-21T15:43:08;100336.02;;;1.01;100.00
43683;BME280;29285;52.128;21.060;2023-11-21T15:48:09;100347.09;;;0.99;100.00
43683;BME280;29285;52.128;21.060;2023-11-21T15:53:10;100354.73;;;1.04;100.00
43683;BME280;29285;52.128;21.060;2023-11-21T15:58:12;100358.36;;;1.06;100.00
43683;BME280;29285;52.128;21.060;2023-11-21T16:03:13;100363.49;;;1.07;100.00
43683;BME280;29285;52.128;21.060;2023-11-21T16:08:15;100375.17;;;1.02;100.00
43683;BME280;29285;52.128;21.060;2023-11-21T16:13:17;100382.44;;;0.98;100.00
43683;BME280;29285;52.128;21.060;2023-11-21T16:18:19;100393.37;;;0.98;100.00
43683;BME280;29285;52.128;21.060;2023-11-21T16:23:20;100406.21;;;1.00;100.00
43683;BME280;29285;52.128;21.060;2023-11-21T16:28:24;100414.83;;;1.02;100.00
43683;BME280;29285;52.128;21.060;2023-11-21T16:33:25;100419.89;;;0.99;100.00
43683;BME280;29285;52.128;21.060;2023-11-21T16:38:26;100426.55;;;0.92;100.00
43683;BME280;29285;52.128;21.060;2023-11-21T16:43:27;100429.59;;;0.90;100.00
43683;BME280;29285;52.128;21.060;2023-11-21T16:48:28;100431.10;;;0.83;100.00
43683;BME280;29285;52.128;21.060;2023-11-21T16:53:29;100436.40;;;0.83;100.00
43683;BME280;29285;52.128;21.060;2023-11-21T16:58:30;100444.36;;;0.87;100.00
43683;BME280;29285;52.128;21.060;2023-11-21T17:03:32;100445.27;;;0.88;100.00
43683;BME280;29285;52.128;21.060;2023-11-21T17:08:33;100448.26;;;0.86;100.00
43683;BME280;29285;52.128;21.060;2023-11-21T17:13:34;100452.59;;;0.75;100.00
43683;BME280;29285;52.128;21.060;2023-11-21T17:18:35;100460.79;;;0.69;100.00
43683;BME280;29285;52.128;21.060;2023-11-21T17:23:36;100464.03;;;0.68;100.00
43683;BME280;29285;52.128;21.060;2023-11-21T17:28:37;100469.87;;;0.63;100.00
43683;BME280;29285;52.128;21.060;2023-11-21T17:33:38;100478.02;;;0.61;100.00
43683;BME280;29285;52.128;21.060;2023-11-21T17:38:39;100481.71;;;0.59;100.00
43683;BME280;29285;52.128;21.060;2023-11-21T17:43:40;100492.66;;;0.53;100.00
43683;BME280;29285;52.128;21.060;2023-11-21T17:48:42;100495.09;;;0.48;100.00
43683;BME280;29285;52.128;21.060;2023-11-21T17:53:43;100496.11;;;0.48;100.00
43683;BME280;29285;52.128;21.060;2023-11-21T17:58:47;100501.02;;;0.47;100.00
43683;BME280;29285;52.128;21.060;2023-11-21T18:03:48;100514.95;;;0.38;100.00
43683;BME280;29285;52.128;21.060;2023-11-21T18:08:49;100521.56;;;0.42;100.00
43683;BME280;29285;52.128;21.060;2023-11-21T18:13:51;100523.16;;;0.50;100.00
43683;BME280;29285;52.128;21.060;2023-11-21T18:18:52;100528.70;;;0.60;100.00
43683;BME280;29285;52.128;21.060;2023-11-21T18:23:53;100539.35;;;0.56;100.00
43683;BME280;29285;52.128;21.060;2023-11-21T18:28:55;100539.79;;;0.53;100.00
43683;BME280;29285;52.128;21.060;2023-11-21T18:33:56;100547.98;;;0.59;100.00
43683;BME280;29285;52.128;21.060;2023-11-21T18:38:57;100552.94;;;0.59;100.00
43683;BME280;29285;52.128;21.060;2023-11-21T18:43:58;100562.98;;;0.58;100.00
43683;BME280;29285;52.128;21.060;2023-11-21T18:48:58;100560.27;;;0.59;100.00
43683;BME280;29285;52.128;21.060;2023-11-21T18:53:59;100569.78;;;0.63;100.00
43683;BME280;29285;52.128;21.060;2023-11-21T18:59:00;100568.17;;;0.61;100.00
43683;BME280;29285;52.128;21.060;2023-11-21T19:04:01;100566.82;;;0.61;100.00
43683;BME280;29285;52.128;21.060;2023-11-21T19:09:02;100565.52;;;0.63;100.00
43683;BME280;29285;52.128;21.060;2023-11-21T19:14:04;100573.92;;;0.59;100.00
43683;BME280;29285;52.128;21.060;2023-11-21T19:19:05;100581.42;;;0.52;100.00
43683;BME280;29285;52.128;21.060;2023-11-21T19:24:07;100594.81;;;0.49;100.00
43683;BME280;29285;52.128;21.060;2023-11-21T19:29:08;100604.11;;;0.45;100.00
43683;BME280;29285;52.128;21.060;2023-11-21T19:34:09;100603.41;;;0.50;100.00
43683;BME280;29285;52.128;21.060;2023-11-21T19:39:10;100611.67;;;0.47;100.00
43683;BME280;29285;52.128;21.060;2023-11-21T19:44:11;100621.20;;;0.46;100.00
43683;BME280;29285;52.128;21.060;2023-11-21T19:49:14;100629.11;;;0.48;100.00
43683;BME280;29285;52.128;21.060;2023-11-21T19:54:15;100638.80;;;0.52;100.00
43683;BME280;29285;52.128;21.060;2023-11-21T19:59:16;100641.05;;;0.77;100.00
43683;BME280;29285;52.128;21.060;2023-11-21T20:04:17;100640.35;;;1.13;100.00
43683;BME280;29285;52.128;21.060;2023-11-21T20:09:18;100642.98;;;1.35;100.00
43683;BME280;29285;52.128;21.060;2023-11-21T20:14:19;100651.23;;;1.50;100.00
43683;BME280;29285;52.128;21.060;2023-11-21T20:19:20;100665.77;;;1.63;100.00
43683;BME280;29285;52.128;21.060;2023-11-21T20:24:21;100672.98;;;1.78;100.00
43683;BME280;29285;52.128;21.060;2023-11-21T20:29:22;100675.43;;;2.01;100.00
43683;BME280;29285;52.128;21.060;2023-11-21T20:34:23;100681.66;;;2.47;100.00
43683;BME280;29285;52.128;21.060;2023-11-21T20:39:24;100683.95;;;2.42;100.00
43683;BME280;29285;52.128;21.060;2023-11-21T20:44:25;100696.96;;;2.35;100.00
43683;BME280;29285;52.128;21.060;2023-11-21T20:49:26;100704.25;;;2.32;100.00
43683;BME280;29285;52.128;21.060;2023-11-21T20:54:27;100712.52;;;2.34;100.00
43683;BME280;29285;52.128;21.060;2023-11-21T20:59:28;100716.08;;;2.25;100.00
43683;BME280;29285;52.128;21.060;2023-11-21T21:04:29;100720.08;;;2.20;100.00
43683;BME280;29285;52.128;21.060;2023-11-21T21:09:31;100726.71;;;2.33;100.00
43683;BME280;29285;52.128;21.060;2023-11-21T21:14:33;100741.00;;;2.22;100.00
43683;BME280;29285;52.128;21.060;2023-11-21T21:19:34;100752.60;;;2.00;100.00
43683;BME280;29285;52.128;21.060;2023-11-21T21:24:35;100764.05;;;1.80;100.00
43683;BME280;29285;52.128;21.060;2023-11-21T21:29:36;100769.02;;;1.54;100.00
43683;BME280;29285;52.128;21.060;2023-11-21T21:34:37;100768.93;;;1.32;100.00
43683;BME280;29285;52.128;21.060;2023-11-21T21:39:39;100773.44;;;1.17;100.00
43683;BME280;29285;52.128;21.060;2023-11-21T21:44:41;100782.39;;;1.08;100.00
43683;BME280;29285;52.128;21.060;2023-11-21T21:49:42;100791.02;;;0.94;100.00
43683;BME280;29285;52.128;21.060;2023-11-21T21:54:43;100803.25;;;0.85;100.00
43683;BME280;29285;52.128;21.060;2023-11-21T21:59:44;100806.49;;;0.80;100.00
43683;BME280;29285;52.128;21.060;2023-11-21T22:04:49;100802.23;;;0.75;100.00
43683;BME280;29285;52.128;21.060;2023-11-21T22:09:51;100809.58;;;0.70;100.00
43683;BME280;29285;52.128;21.060;2023-11-21T22:14:52;100824.78;;;0.75;100.00
43683;BME280;29285;52.128;21.060;2023-11-21T22:19:54;100826.94;;;0.73;100.00
43683;BME280;29285;52.128;21.060;2023-11-21T22:24:55;100836.97;;;0.76;100.00
43683;BME280;29285;52.128;21.060;2023-11-21T22:29:56;100835.27;;;0.72;100.00
43683;BME280;29285;52.128;21.060;2023-11-21T22:34:57;100841.72;;;0.65;100.00
43683;BME280;29285;52.128;21.060;2023-11-21T22:39:58;100844.46;;;0.65;100.00
43683;BME280;29285;52.128;21.060;2023-11-21T22:44:59;100849.87;;;0.69;100.00
43683;BME280;29285;52.128;21.060;2023-11-21T22:50:00;100852.48;;;0.65;100.00
43683;BME280;29285;52.128;21.060;2023-11-21T22:55:01;100856.31;;;0.67;100.00
43683;BME280;29285;52.128;21.060;2023-11-21T23:00:03;100863.98;;;0.67;100.00
43683;BME280;29285;52.128;21.060;2023-11-21T23:05:12;100866.23;;;0.62;100.00
43683;BME280;29285;52.128;21.060;2023-11-21T23:10:14;100870.39;;;0.54;100.00
43683;BME280;29285;52.128;21.060;2023-11-21T23:15:15;100870.02;;;0.47;100.00
43683;BME280;29285;52.128;21.060;2023-11-21T23:20:17;100873.02;;;0.51;100.00
43683;BME280;29285;52.128;21.060;2023-11-21T23:25:22;100882.28;;;0.52;100.00
43683;BME280;29285;52.128;21.060;2023-11-21T23:30:23;100893.30;;;0.45;100.00
43683;BME280;29285;52.128;21.060;2023-11-21T23:35:24;100902.89;;;0.35;100.00
43683;BME280;29285;52.128;21.060;2023-11-21T23:40:26;100910.04;;;0.30;100.00
43683;BME280;29285;52.128;21.060;2023-11-21T23:45:27;100909.90;;;0.36;100.00
43683;BME280;29285;52.128;21.060;2023-11-21T23:50:28;100917.77;;;0.41;100.00
43683;BME280;29285;52.128;21.060;2023-11-21T23:55:30;100918.15;;;0.47;100.00
